Aviation Digital Data Service (ADDS)

Output produced by METARs form (1819 UTC 20 January 2019)
found at http://www.aviationweather.gov/metar/data/
 
FCBB 201700Z 04012KT 010V070 8000 TS FEW020 BKN023 FEW030CB 27/20 Q1012 NOSIG
TAF FCBB 201700Z 2018/2124 04012KT 8000 TS FEW020 BKN023 FEW030CB 
     BECMG 2019/2021 VRB04KT NSW SCT018 
     BECMG 2112/2114 SCT023 FEW030CB 
     PROB40 2117/2121 4000 TSRA
       
FCPP 201800Z 22007KT FEW010 BKN023 FEW030CB 29/25 Q1011 NOSIG
TAF FCPP 201700Z 2018/2118 19008KT 8000 SCT013 
     BECMG 2112/2114 SCT016 FEW030CB